createdAt,value
2023-04-15T00:02:15.937Z,4.38
2023-04-15T00:04:43.954Z,5.82
2023-04-15T00:07:12.135Z,5.38
2023-04-15T00:09:40.170Z,8.88
2023-04-15T00:12:09.064Z,5.03
2023-04-15T00:14:38.712Z,4.45
2023-04-15T00:17:07.408Z,8.60
2023-04-15T00:19:35.340Z,4.38
2023-04-15T00:22:03.346Z,8.52
2023-04-15T00:24:31.580Z,6.28
2023-04-15T00:26:59.941Z,9.07
2023-04-15T00:29:28.405Z,6.50
2023-04-15T00:31:58.023Z,9.13
2023-04-15T00:34:25.953Z,8.02
2023-04-15T00:36:53.845Z,8.95
2023-04-15T00:39:22.760Z,5.00
2023-04-15T00:41:50.900Z,5.72
2023-04-15T00:44:19.668Z,6.15
2023-04-15T00:46:49.405Z,3.03
2023-04-15T00:49:19.345Z,4.45
2023-04-15T00:51:47.256Z,6.10
2023-04-15T00:54:15.305Z,4.95
2023-04-15T00:56:43.697Z,4.18
2023-04-15T00:59:11.742Z,7.38
2023-04-15T01:01:39.907Z,4.97
2023-04-15T01:04:10.222Z,4.53
2023-04-15T01:06:39.711Z,5.85
2023-04-15T01:09:07.639Z,4.47
2023-04-15T01:11:36.297Z,5.47
2023-04-15T01:14:05.228Z,4.43
2023-04-15T01:16:33.133Z,5.90
2023-04-15T01:19:02.060Z,3.60
2023-04-15T01:21:30.304Z,5.88
2023-04-15T01:24:00.563Z,5.63
2023-04-15T01:26:30.726Z,5.53
2023-04-15T01:28:58.844Z,4.40
2023-04-15T01:31:27.331Z,6.18
2023-04-15T01:33:55.286Z,6.43
2023-04-15T01:36:23.213Z,5.75
2023-04-15T01:38:52.479Z,6.38
2023-04-15T01:41:25.309Z,6.15
2023-04-15T01:43:54.753Z,5.45
2023-04-15T01:46:22.737Z,5.30
2023-04-15T01:48:50.847Z,8.60
2023-04-15T01:51:18.859Z,5.47
2023-04-15T01:53:47.265Z,5.43
2023-04-15T01:56:16.846Z,5.68
2023-04-15T01:58:44.906Z,6.10
2023-04-15T02:01:15.199Z,4.80
2023-04-15T02:03:43.476Z,7.03
2023-04-15T02:06:11.459Z,8.43
2023-04-15T02:08:39.695Z,7.65
2023-04-15T02:11:07.630Z,3.35
2023-04-15T02:13:35.664Z,7.20
2023-04-15T02:16:04.951Z,8.15
2023-04-15T02:18:34.300Z,4.57
2023-04-15T02:21:02.719Z,6.70
2023-04-15T02:23:30.810Z,6.80
2023-04-15T02:25:59.852Z,6.28
2023-04-15T02:28:27.758Z,5.82
2023-04-15T02:30:57.639Z,6.78
2023-04-15T02:33:25.831Z,6.90
2023-04-15T02:35:55.110Z,8.32
2023-04-15T02:38:23.008Z,5.40
2023-04-15T02:40:51.509Z,5.55
2023-04-15T02:43:19.435Z,8.30
2023-04-15T02:45:48.174Z,6.45
2023-04-15T02:48:18.025Z,6.93
2023-04-15T02:50:46.613Z,8.35
2023-04-15T02:53:16.109Z,6.95
2023-04-15T02:55:44.031Z,4.50
2023-04-15T02:58:11.932Z,10.00
2023-04-15T03:00:39.865Z,5.32
2023-04-15T03:03:07.967Z,6.75
2023-04-15T03:05:36.034Z,4.60
2023-04-15T03:08:04.016Z,7.55
2023-04-15T03:10:33.350Z,7.70
2023-04-15T03:13:01.340Z,9.15
2023-04-15T03:15:29.417Z,8.55
2023-04-15T03:17:57.490Z,6.75
2023-04-15T03:20:25.514Z,7.55
2023-04-15T03:22:54.808Z,3.42
2023-04-15T03:25:22.733Z,7.32
2023-04-15T03:27:52.132Z,7.55
2023-04-15T03:30:20.146Z,7.10
2023-04-15T03:32:48.124Z,8.13
2023-04-15T03:35:16.420Z,4.60
2023-04-15T03:37:44.389Z,4.82
2023-04-15T03:40:13.176Z,6.65
2023-04-15T03:42:41.085Z,9.40
2023-04-15T03:45:11.553Z,5.90
2023-04-15T03:47:39.606Z,4.15
2023-04-15T03:50:08.851Z,7.13
2023-04-15T03:52:36.808Z,9.50
2023-04-15T03:55:05.224Z,6.28
2023-04-15T03:57:37.965Z,6.13
2023-04-15T04:00:07.105Z,4.63
2023-04-15T04:02:36.775Z,9.43
2023-04-15T04:05:05.257Z,7.15
2023-04-15T04:07:33.145Z,5.93
2023-04-15T04:10:01.286Z,8.38
2023-04-15T04:12:29.253Z,7.78
2023-04-15T04:14:57.209Z,10.85
2023-04-15T04:17:25.461Z,9.52
2023-04-15T04:19:54.766Z,9.27
2023-04-15T04:22:24.720Z,6.75
2023-04-15T04:24:52.620Z,7.78
2023-04-15T04:27:20.750Z,11.00
2023-04-15T04:29:49.889Z,8.75
2023-04-15T04:32:17.977Z,7.07
2023-04-15T04:34:45.894Z,9.32
2023-04-15T04:37:15.294Z,10.82
2023-04-15T04:39:43.218Z,8.20
2023-04-15T04:42:11.115Z,7.53
2023-04-15T04:44:39.125Z,6.88
2023-04-15T04:47:07.589Z,7.45
2023-04-15T04:49:35.586Z,9.07
2023-04-15T04:52:03.779Z,7.72
2023-04-15T04:54:33.255Z,6.28
2023-04-15T04:57:01.661Z,7.65
2023-04-15T04:59:29.558Z,16.38
2023-04-15T05:01:57.675Z,12.73
2023-04-15T05:04:26.259Z,8.88
2023-04-15T05:06:54.227Z,11.07
2023-04-15T05:09:22.166Z,10.52
2023-04-15T05:11:51.522Z,8.23
2023-04-15T05:14:19.760Z,9.70
2023-04-15T05:16:48.446Z,7.50
2023-04-15T05:19:16.372Z,9.43
2023-04-15T05:21:44.435Z,5.75
2023-04-15T05:24:12.545Z,8.27
2023-04-15T05:26:41.204Z,5.28
2023-04-15T05:29:11.277Z,8.35
2023-04-15T05:31:39.522Z,10.13
2023-04-15T05:34:07.629Z,7.15
2023-04-15T05:36:35.605Z,6.63
2023-04-15T05:39:04.313Z,5.13
2023-04-15T05:41:32.341Z,6.40
2023-04-15T05:44:00.713Z,4.43
2023-04-15T05:46:30.066Z,5.22
2023-04-15T05:48:58.152Z,7.95
2023-04-15T05:51:26.439Z,6.03
2023-04-15T05:53:54.437Z,4.32
2023-04-15T05:56:22.470Z,7.20
2023-04-15T05:58:52.436Z,9.63
2023-04-15T06:01:24.525Z,5.25
2023-04-15T06:03:53.905Z,6.57
2023-04-15T06:06:21.968Z,5.85
2023-04-15T06:08:49.911Z,8.65
2023-04-15T06:11:17.972Z,6.80
2023-04-15T06:13:45.922Z,11.27
2023-04-15T06:16:15.000Z,6.22
2023-04-15T06:18:43.023Z,5.65
2023-04-15T06:21:12.628Z,4.90
2023-04-15T06:23:41.284Z,4.82
2023-04-15T06:26:09.199Z,6.53
2023-04-15T06:28:37.178Z,4.72
2023-04-15T06:31:05.117Z,6.00
2023-04-15T06:33:33.409Z,6.97
2023-04-15T06:36:01.373Z,6.15
2023-04-15T06:38:30.682Z,6.43
2023-04-15T06:40:58.643Z,5.18
2023-04-15T06:43:26.818Z,5.75
2023-04-15T06:45:54.841Z,4.20
2023-04-15T06:48:22.737Z,4.63
2023-04-15T06:50:50.821Z,6.70
2023-04-15T06:53:18.739Z,4.60
2023-04-15T06:55:48.106Z,5.78
2023-04-15T06:58:16.264Z,4.05
2023-04-15T07:00:44.879Z,6.70
2023-04-15T07:03:13.839Z,7.00
2023-04-15T07:05:42.464Z,7.68
2023-04-15T07:08:10.429Z,6.50
2023-04-15T07:10:38.329Z,7.82
2023-04-15T07:13:08.962Z,5.95
2023-04-15T07:15:37.001Z,7.45
2023-04-15T07:18:05.272Z,4.95
2023-04-15T07:20:33.262Z,6.20
2023-04-15T07:23:01.496Z,9.55
2023-04-15T07:25:29.438Z,5.38
2023-04-15T07:27:57.355Z,8.07
2023-04-15T07:30:26.637Z,6.90
2023-04-15T07:32:55.084Z,8.88
2023-04-15T07:35:23.388Z,9.70
2023-04-15T07:37:51.360Z,6.13
2023-04-15T07:40:19.908Z,8.10
2023-04-15T07:42:49.427Z,3.90
2023-04-15T07:45:17.543Z,8.40
2023-04-15T07:47:46.982Z,6.65
2023-04-15T07:50:16.305Z,6.80
2023-04-15T07:52:44.430Z,5.72
2023-04-15T07:55:12.401Z,4.78
2023-04-15T07:57:40.303Z,3.72
2023-04-15T08:00:10.196Z,7.13
2023-04-15T08:02:40.300Z,6.25
2023-04-15T08:05:10.959Z,5.95
2023-04-15T08:07:39.482Z,6.88
2023-04-15T08:10:08.366Z,4.93
2023-04-15T08:12:36.356Z,5.53
2023-04-15T08:15:04.422Z,6.60
2023-04-15T08:17:32.443Z,5.38
2023-04-15T08:20:00.433Z,6.10
2023-04-15T08:22:29.719Z,9.60
2023-04-15T08:24:57.893Z,9.55
2023-04-15T08:27:26.033Z,5.55
2023-04-15T08:29:54.027Z,6.25
2023-04-15T08:32:22.604Z,8.07
2023-04-15T08:34:50.825Z,7.97
2023-04-15T08:37:18.777Z,5.53
2023-04-15T08:39:48.594Z,4.82
2023-04-15T08:42:20.371Z,6.25
2023-04-15T08:44:49.424Z,8.20
2023-04-15T08:47:22.756Z,7.43
2023-04-15T08:49:53.957Z,8.38
2023-04-15T08:52:22.615Z,5.78
2023-04-15T08:54:52.380Z,3.28
2023-04-15T08:57:20.695Z,8.55
2023-04-15T08:59:49.552Z,4.95
2023-04-15T09:02:17.872Z,5.45
2023-04-15T09:04:45.922Z,8.40
2023-04-15T09:07:13.914Z,4.60
2023-04-15T09:09:42.261Z,4.70
2023-04-15T09:12:13.584Z,6.47
2023-04-15T09:14:42.201Z,4.93
2023-04-15T09:17:11.784Z,7.97
2023-04-15T09:19:39.706Z,6.55
2023-04-15T09:22:07.932Z,5.15
2023-04-15T09:24:39.250Z,3.97
2023-04-15T09:27:07.953Z,5.05
2023-04-15T09:29:37.505Z,7.20
2023-04-15T09:32:12.673Z,4.00
2023-04-15T09:34:40.667Z,6.00
2023-04-15T09:37:10.896Z,5.70
2023-04-15T09:39:50.195Z,3.20
2023-04-15T09:42:24.146Z,4.85
2023-04-15T09:44:53.792Z,2.72
2023-04-15T09:47:31.558Z,5.97
2023-04-15T09:50:00.436Z,6.13
2023-04-15T09:52:28.956Z,7.18
2023-04-15T09:54:59.248Z,7.53
2023-04-15T09:57:34.574Z,3.67
2023-04-15T10:00:05.284Z,4.63
2023-04-15T10:02:33.662Z,5.97
2023-04-15T10:05:03.033Z,6.50
2023-04-15T10:07:31.105Z,3.92
2023-04-15T10:10:02.079Z,4.47
2023-04-15T10:12:30.605Z,5.22
2023-04-15T10:15:01.914Z,4.72
2023-04-15T10:17:35.273Z,4.07
2023-04-15T10:20:04.695Z,7.82
2023-04-15T10:22:33.837Z,5.00
2023-04-15T10:25:04.273Z,4.28
2023-04-15T10:27:32.876Z,7.40
2023-04-15T10:30:03.040Z,5.97
2023-04-15T10:32:32.789Z,7.28
2023-04-15T10:35:01.092Z,6.57
2023-04-15T10:37:36.086Z,6.15
2023-04-15T10:40:26.116Z,3.95
2023-04-15T10:42:55.329Z,6.65
2023-04-15T10:45:27.295Z,4.75
2023-04-15T10:47:59.999Z,7.55
2023-04-15T10:50:33.161Z,9.25
2023-04-15T10:53:06.162Z,5.88
2023-04-15T10:55:35.355Z,6.32
2023-04-15T10:58:03.974Z,3.78
2023-04-15T11:00:33.174Z,8.10
2023-04-15T11:03:08.864Z,8.13
2023-04-15T11:06:01.731Z,7.03
2023-04-15T11:08:58.572Z,6.32
2023-04-15T11:12:00.459Z,6.90
2023-04-15T11:14:28.698Z,6.03
2023-04-15T11:16:56.681Z,8.13
2023-04-15T11:19:26.021Z,6.10
2023-04-15T11:21:53.979Z,5.93
2023-04-15T11:24:27.432Z,4.13
2023-04-15T11:26:59.864Z,5.05
2023-04-15T11:29:31.376Z,3.78
2023-04-15T11:32:10.357Z,6.53
2023-04-15T11:34:39.903Z,4.57
2023-04-15T11:37:08.344Z,4.40
2023-04-15T11:39:38.356Z,4.53
2023-04-15T11:42:18.102Z,6.38
2023-04-15T11:44:46.008Z,7.20
2023-04-15T11:47:24.147Z,7.32
2023-04-15T11:49:53.420Z,4.75
2023-04-15T11:52:21.505Z,6.50
2023-04-15T11:54:51.060Z,7.53
2023-04-15T11:57:19.240Z,6.57
2023-04-15T11:59:47.144Z,7.05
2023-04-15T12:02:15.475Z,7.15
2023-04-15T12:04:43.750Z,6.25
2023-04-15T12:07:13.209Z,6.80
2023-04-15T12:09:41.404Z,5.93
2023-04-15T12:12:12.064Z,4.47
2023-04-15T12:14:42.349Z,5.22
2023-04-15T12:17:13.212Z,4.30
2023-04-15T12:19:43.208Z,8.70
2023-04-15T12:22:14.159Z,5.75
2023-04-15T12:24:46.981Z,7.10
2023-04-15T12:27:16.282Z,8.10
2023-04-15T12:29:44.537Z,6.47
2023-04-15T12:32:13.995Z,6.40
2023-04-15T12:34:43.482Z,5.90
2023-04-15T12:37:14.439Z,8.20
2023-04-15T12:39:44.117Z,6.30
2023-04-15T12:42:13.071Z,8.63
2023-04-15T12:44:41.566Z,4.85
2023-04-15T12:47:10.725Z,8.70
2023-04-15T12:49:39.381Z,12.27
2023-04-15T12:52:07.700Z,10.27
2023-04-15T12:54:37.199Z,7.47
2023-04-15T12:57:07.315Z,11.00
2023-04-15T12:59:35.600Z,11.70
2023-04-15T13:02:05.543Z,9.93
2023-04-15T13:04:33.828Z,9.52
2023-04-15T13:07:03.028Z,9.23
2023-04-15T13:09:31.086Z,8.40
2023-04-15T13:12:00.526Z,8.07
2023-04-15T13:14:28.516Z,9.02
2023-04-15T13:16:58.100Z,6.93
2023-04-15T13:19:26.686Z,10.95
2023-04-15T13:21:54.683Z,9.98
2023-04-15T13:24:22.677Z,7.22
2023-04-15T13:26:50.642Z,7.20
2023-04-15T13:29:20.132Z,8.23
2023-04-15T13:31:48.243Z,8.07
2023-04-15T13:34:16.447Z,7.45
2023-04-15T13:36:44.393Z,6.13
2023-04-15T13:39:12.405Z,7.60
2023-04-15T13:41:41.387Z,7.10
2023-04-15T13:44:09.304Z,7.28
2023-04-15T13:46:39.598Z,7.28
2023-04-15T13:49:07.509Z,6.63
2023-04-15T13:51:36.353Z,6.20
2023-04-15T13:54:04.406Z,6.15
2023-04-15T13:56:32.435Z,5.55
2023-04-15T13:59:02.340Z,7.82
2023-04-15T14:01:30.579Z,8.05
2023-04-15T14:04:00.176Z,8.73
2023-04-15T14:06:28.454Z,5.07
2023-04-15T14:08:56.515Z,9.30
2023-04-15T14:11:24.555Z,6.80
2023-04-15T14:13:52.535Z,4.82
2023-04-15T14:16:20.578Z,5.20
2023-04-15T14:18:48.608Z,5.68
2023-04-15T14:21:18.043Z,6.38
2023-04-15T14:23:46.061Z,6.13
2023-04-15T14:26:14.681Z,10.55
2023-04-15T14:28:45.081Z,4.00
2023-04-15T14:31:13.411Z,5.47
2023-04-15T14:33:41.362Z,16.90
2023-04-15T14:36:10.021Z,3.50
2023-04-15T14:38:40.066Z,4.43
2023-04-15T14:41:08.568Z,4.35
2023-04-15T14:43:36.746Z,5.43
2023-04-15T14:46:04.918Z,4.68
2023-04-15T14:48:33.193Z,4.60
2023-04-15T14:51:01.208Z,6.45
2023-04-15T14:53:29.221Z,5.68
2023-04-15T14:55:58.523Z,5.05
2023-04-15T14:58:26.595Z,5.88
2023-04-15T15:00:54.580Z,3.47
2023-04-15T15:03:22.680Z,4.53
2023-04-15T15:05:50.908Z,6.40
2023-04-15T15:08:18.991Z,2.75
2023-04-15T15:10:48.722Z,3.28
2023-04-15T15:13:19.880Z,3.90
2023-04-15T15:15:49.417Z,1.38
2023-04-15T15:18:19.317Z,2.85
2023-04-15T15:20:47.789Z,5.95
2023-04-15T15:23:15.871Z,3.85
2023-04-15T15:25:43.955Z,2.92
2023-04-15T15:28:11.977Z,3.50
2023-04-15T15:30:41.273Z,2.55
2023-04-15T15:33:09.282Z,3.65
2023-04-15T15:35:37.302Z,2.60
2023-04-15T15:38:05.396Z,3.63
2023-04-15T15:40:33.404Z,3.63
2023-04-15T15:43:01.424Z,5.30
2023-04-15T15:45:29.549Z,4.20
2023-04-15T15:48:00.117Z,3.42
2023-04-15T15:50:28.492Z,8.50
2023-04-15T15:52:58.542Z,2.95
2023-04-15T15:55:27.241Z,3.22
2023-04-15T15:57:55.303Z,5.55
2023-04-15T16:00:23.820Z,3.38
2023-04-15T16:05:24.154Z,3.55
2023-04-15T16:07:52.237Z,4.45
2023-04-15T16:10:20.227Z,4.30
2023-04-15T16:12:48.255Z,4.65
2023-04-15T16:15:16.480Z,6.03
2023-04-15T16:17:44.893Z,3.35
2023-04-15T16:20:12.874Z,4.32
2023-04-15T16:22:42.326Z,4.38
2023-04-15T16:25:10.789Z,8.23
2023-04-15T16:27:57.295Z,4.07
2023-04-15T16:30:28.951Z,6.28
2023-04-15T16:32:57.683Z,4.00
2023-04-15T16:35:25.844Z,5.18
2023-04-15T16:37:57.691Z,5.30
2023-04-15T16:40:26.341Z,4.22
2023-04-15T16:42:56.336Z,3.97
2023-04-15T16:45:24.338Z,3.55
2023-04-15T16:47:52.386Z,5.88
2023-04-15T16:50:20.470Z,5.78
2023-04-15T16:52:48.423Z,4.63
2023-04-15T16:55:17.781Z,4.50
2023-04-15T16:58:01.172Z,4.93
2023-04-15T17:00:32.137Z,7.07
2023-04-15T17:03:00.372Z,4.90
2023-04-15T17:05:29.238Z,9.23
2023-04-15T17:07:57.263Z,4.13
2023-04-15T17:10:26.713Z,7.03
2023-04-15T17:12:56.742Z,3.72
2023-04-15T17:15:25.068Z,4.15
2023-04-15T17:17:54.033Z,6.20
2023-04-15T17:20:22.221Z,4.88
2023-04-15T17:22:50.411Z,5.97
2023-04-15T17:25:19.444Z,3.70
2023-04-15T17:27:48.769Z,4.13
2023-04-15T17:30:16.744Z,7.45
2023-04-15T17:32:44.834Z,7.68
2023-04-15T17:35:12.969Z,5.50
2023-04-15T17:37:41.093Z,6.15
2023-04-15T17:40:10.045Z,6.28
2023-04-15T17:42:37.946Z,6.43
2023-04-15T17:45:08.542Z,6.35
2023-04-15T17:47:36.701Z,5.45
2023-04-15T17:50:05.225Z,6.05
2023-04-15T17:52:33.166Z,6.60
2023-04-15T17:55:01.135Z,7.68
2023-04-15T17:57:29.326Z,7.20
2023-04-15T17:59:57.417Z,6.43
2023-04-15T18:02:26.950Z,7.35
2023-04-15T18:04:55.307Z,11.82
2023-04-15T18:07:23.370Z,6.53
2023-04-15T18:09:51.625Z,8.52
2023-04-15T18:12:19.597Z,6.07
2023-04-15T18:14:47.711Z,6.10
2023-04-15T18:17:15.776Z,6.10
2023-04-15T18:19:45.871Z,6.45
2023-04-15T18:22:13.916Z,8.73
2023-04-15T18:24:41.971Z,8.75
2023-04-15T18:27:09.984Z,7.70
2023-04-15T18:29:38.446Z,8.98
2023-04-15T18:32:06.671Z,9.18
2023-04-15T18:34:34.726Z,9.40
2023-04-15T18:37:05.280Z,6.60
2023-04-15T18:39:33.446Z,7.75
2023-04-15T18:42:01.924Z,8.35
2023-04-15T18:44:30.401Z,9.77
2023-04-15T18:46:58.402Z,11.75
2023-04-15T18:49:27.385Z,9.77
2023-04-15T18:51:55.616Z,12.05
2023-04-15T18:54:25.098Z,8.57
2023-04-15T18:56:53.435Z,13.48
2023-04-15T18:59:29.372Z,13.88
2023-04-15T19:01:59.132Z,12.32
2023-04-15T19:04:28.808Z,11.13
2023-04-15T19:06:57.283Z,15.05
2023-04-15T19:09:26.674Z,7.55
2023-04-15T19:11:54.648Z,8.75
2023-04-15T19:14:23.034Z,9.88
2023-04-15T19:16:51.225Z,11.02
2023-04-15T19:19:19.744Z,17.45
2023-04-15T19:21:50.002Z,15.18
2023-04-15T19:24:18.902Z,12.95
2023-04-15T19:26:50.019Z,9.60
2023-04-15T19:29:18.354Z,8.15
2023-04-15T19:31:46.429Z,8.90
2023-04-15T19:34:14.587Z,6.03
2023-04-15T19:36:43.059Z,5.95
2023-04-15T19:39:11.407Z,7.25
2023-04-15T19:41:39.665Z,9.48
2023-04-15T19:44:09.050Z,9.25
2023-04-15T19:46:37.267Z,8.27
2023-04-15T19:49:05.668Z,9.05
2023-04-15T19:51:33.919Z,8.43
2023-04-15T19:54:01.927Z,9.68
2023-04-15T19:56:31.728Z,10.13
2023-04-15T19:59:02.168Z,10.90
2023-04-15T20:01:31.917Z,11.65
2023-04-15T20:04:00.266Z,14.50
2023-04-15T20:06:28.504Z,14.23
2023-04-15T20:08:56.442Z,15.65
2023-04-15T20:12:09.283Z,14.75
2023-04-15T20:14:17.560Z,14.23
2023-04-15T20:16:47.681Z,10.02
2023-04-15T20:19:15.850Z,11.35
2023-04-15T20:21:43.833Z,10.43
2023-04-15T20:24:11.837Z,11.93
2023-04-15T20:26:39.822Z,12.05
2023-04-15T20:29:08.322Z,9.63
2023-04-15T20:31:36.546Z,9.70
2023-04-15T20:34:05.973Z,7.50
2023-04-15T20:36:34.351Z,9.45
2023-04-15T20:39:02.396Z,7.55
2023-04-15T20:41:30.436Z,8.55
2023-04-15T20:43:58.421Z,10.50
2023-04-15T20:46:27.746Z,9.75
2023-04-15T20:48:56.634Z,9.73
2023-04-15T20:51:27.429Z,9.35
2023-04-15T20:53:55.584Z,9.95
2023-04-15T20:56:23.620Z,10.23
2023-04-15T20:58:51.927Z,11.25
2023-04-15T21:01:20.044Z,11.18
2023-04-15T21:03:48.416Z,11.88
2023-04-15T21:06:18.880Z,11.38
2023-04-15T21:08:48.242Z,12.43
2023-04-15T21:11:25.706Z,12.20
2023-04-15T21:14:04.232Z,14.77
2023-04-15T21:16:33.889Z,12.55
2023-04-15T21:19:01.970Z,14.02
2023-04-15T21:21:29.905Z,13.70
2023-04-15T21:24:00.353Z,14.23
2023-04-15T21:26:28.427Z,14.65
2023-04-15T21:28:56.384Z,15.10
2023-04-15T21:31:24.597Z,16.13
2023-04-15T21:33:52.630Z,15.32
2023-04-15T21:36:20.662Z,16.42
2023-04-15T21:38:48.685Z,15.82
2023-04-15T21:41:18.066Z,16.27
2023-04-15T21:43:46.049Z,15.90
2023-04-15T21:46:22.248Z,17.70
2023-04-15T21:48:54.098Z,16.17
2023-04-15T21:51:22.463Z,17.23
2023-04-15T21:53:50.445Z,18.65
2023-04-15T21:56:21.529Z,18.10
2023-04-15T21:58:49.470Z,19.95
2023-04-15T22:01:17.498Z,19.05
2023-04-15T22:03:45.629Z,20.40
2023-04-15T22:06:13.839Z,21.60
2023-04-15T22:08:54.968Z,20.52
2023-04-15T22:11:28.213Z,18.80
2023-04-15T22:13:57.240Z,19.73
2023-04-15T22:16:26.302Z,20.55
2023-04-15T22:18:54.629Z,22.35
2023-04-15T22:21:22.644Z,21.55
2023-04-15T22:23:50.770Z,23.02
2023-04-15T22:26:18.862Z,20.92
2023-04-15T22:28:48.231Z,20.17
2023-04-15T22:31:16.444Z,20.27
2023-04-15T22:33:44.397Z,21.08
2023-04-15T22:36:13.522Z,21.88
2023-04-15T22:38:41.495Z,21.48
2023-04-15T22:41:10.174Z,21.63
2023-04-15T22:43:38.300Z,22.05
2023-04-15T22:46:07.847Z,20.25
2023-04-15T22:48:36.063Z,20.00
2023-04-15T22:51:06.160Z,19.40
2023-04-15T22:53:34.268Z,20.63
2023-04-15T22:56:02.372Z,20.00
2023-04-15T22:58:32.108Z,21.58
2023-04-15T23:01:00.572Z,22.27
2023-04-15T23:03:30.006Z,23.52
2023-04-15T23:05:58.135Z,19.02
2023-04-15T23:08:26.086Z,19.23
2023-04-15T23:10:54.018Z,21.88
2023-04-15T23:13:22.016Z,18.38
2023-04-15T23:15:50.042Z,19.35
2023-04-15T23:18:18.082Z,20.40
2023-04-15T23:20:47.826Z,21.13
2023-04-15T23:23:16.458Z,21.30
2023-04-15T23:25:44.457Z,21.30
2023-04-15T23:28:12.513Z,21.40
2023-04-15T23:30:40.573Z,19.70
2023-04-15T23:33:08.544Z,21.23
2023-04-15T23:35:37.824Z,21.38
2023-04-15T23:38:07.110Z,19.83
2023-04-15T23:40:35.510Z,20.15
2023-04-15T23:43:03.489Z,21.20
2023-04-15T23:45:34.754Z,22.05
2023-04-15T23:48:02.766Z,19.92
2023-04-15T23:50:30.724Z,20.40
2023-04-15T23:52:58.676Z,20.23
2023-04-15T23:55:28.019Z,20.23
2023-04-15T23:57:56.124Z,21.83
